sensor_id;sensor_type;location;lat;lon;timestamp;P1;durP1;ratioP1;P2;durP2;ratioP2
70576;SDS011;58138;43.138;24.702;2023-09-19T00:02:16;6.38;;;4.95;;
70576;SDS011;58138;43.138;24.702;2023-09-19T00:04:42;8.65;;;5.38;;
70576;SDS011;58138;43.138;24.702;2023-09-19T00:07:08;8.02;;;5.70;;
70576;SDS011;58138;43.138;24.702;2023-09-19T00:09:50;6.53;;;5.50;;
70576;SDS011;58138;43.138;24.702;2023-09-19T00:12:15;10.18;;;5.18;;
70576;SDS011;58138;43.138;24.702;2023-09-19T00:14:41;8.88;;;5.57;;
70576;SDS011;58138;43.138;24.702;2023-09-19T00:17:06;7.13;;;5.25;;
70576;SDS011;58138;43.138;24.702;2023-09-19T00:19:34;10.82;;;5.20;;
70576;SDS011;58138;43.138;24.702;2023-09-19T00:22:00;9.60;;;5.15;;
70576;SDS011;58138;43.138;24.702;2023-09-19T00:24:27;6.05;;;5.07;;
70576;SDS011;58138;43.138;24.702;2023-09-19T00:26:53;6.63;;;4.93;;
70576;SDS011;58138;43.138;24.702;2023-09-19T00:29:20;8.10;;;5.05;;
70576;SDS011;58138;43.138;24.702;2023-09-19T00:31:46;8.27;;;4.93;;
70576;SDS011;58138;43.138;24.702;2023-09-19T00:34:12;9.73;;;5.70;;
70576;SDS011;58138;43.138;24.702;2023-09-19T00:36:37;6.50;;;5.63;;
70576;SDS011;58138;43.138;24.702;2023-09-19T00:39:04;7.80;;;5.15;;
70576;SDS011;58138;43.138;24.702;2023-09-19T00:41:31;8.15;;;5.63;;
70576;SDS011;58138;43.138;24.702;2023-09-19T00:43:57;7.45;;;5.57;;
70576;SDS011;58138;43.138;24.702;2023-09-19T00:46:24;9.77;;;5.30;;
70576;SDS011;58138;43.138;24.702;2023-09-19T00:48:50;7.65;;;5.63;;
70576;SDS011;58138;43.138;24.702;2023-09-19T00:51:16;7.68;;;5.10;;
70576;SDS011;58138;43.138;24.702;2023-09-19T00:53:45;6.53;;;5.10;;
70576;SDS011;58138;43.138;24.702;2023-09-19T00:56:12;9.07;;;5.50;;
70576;SDS011;58138;43.138;24.702;2023-09-19T00:58:38;9.05;;;5.50;;
70576;SDS011;58138;43.138;24.702;2023-09-19T01:01:03;7.72;;;5.47;;
70576;SDS011;58138;43.138;24.702;2023-09-19T01:03:32;9.95;;;5.68;;
70576;SDS011;58138;43.138;24.702;2023-09-19T01:05:59;9.93;;;6.10;;
70576;SDS011;58138;43.138;24.702;2023-09-19T01:08:25;5.57;;;4.88;;
70576;SDS011;58138;43.138;24.702;2023-09-19T01:10:59;8.00;;;5.82;;
70576;SDS011;58138;43.138;24.702;2023-09-19T01:13:30;10.40;;;5.90;;
70576;SDS011;58138;43.138;24.702;2023-09-19T01:21:17;7.13;;;5.43;;
70576;SDS011;58138;43.138;24.702;2023-09-19T01:31:44;10.40;;;5.55;;
70576;SDS011;58138;43.138;24.702;2023-09-19T01:34:10;11.27;;;5.75;;
70576;SDS011;58138;43.138;24.702;2023-09-19T01:36:36;9.52;;;5.07;;
70576;SDS011;58138;43.138;24.702;2023-09-19T01:39:10;6.03;;;5.07;;
70576;SDS011;58138;43.138;24.702;2023-09-19T01:44:17;9.25;;;5.63;;
70576;SDS011;58138;43.138;24.702;2023-09-19T01:46:48;8.10;;;5.38;;
70576;SDS011;58138;43.138;24.702;2023-09-19T01:49:33;6.78;;;5.35;;
70576;SDS011;58138;43.138;24.702;2023-09-19T01:52:10;10.68;;;5.13;;
70576;SDS011;58138;43.138;24.702;2023-09-19T01:54:48;6.30;;;5.28;;
70576;SDS011;58138;43.138;24.702;2023-09-19T02:00:00;6.95;;;5.30;;
70576;SDS011;58138;43.138;24.702;2023-09-19T02:02:32;6.88;;;5.75;;
70576;SDS011;58138;43.138;24.702;2023-09-19T02:05:01;12.57;;;6.65;;
70576;SDS011;58138;43.138;24.702;2023-09-19T02:07:29;8.73;;;6.30;;
70576;SDS011;58138;43.138;24.702;2023-09-19T02:09:57;10.90;;;6.25;;
70576;SDS011;58138;43.138;24.702;2023-09-19T02:12:24;7.25;;;5.97;;
70576;SDS011;58138;43.138;24.702;2023-09-19T02:14:50;9.23;;;6.03;;
70576;SDS011;58138;43.138;24.702;2023-09-19T02:17:15;6.68;;;5.85;;
70576;SDS011;58138;43.138;24.702;2023-09-19T02:19:42;6.78;;;5.78;;
70576;SDS011;58138;43.138;24.702;2023-09-19T02:22:08;8.27;;;5.78;;
70576;SDS011;58138;43.138;24.702;2023-09-19T02:24:35;12.00;;;6.18;;
70576;SDS011;58138;43.138;24.702;2023-09-19T02:27:03;9.55;;;6.82;;
70576;SDS011;58138;43.138;24.702;2023-09-19T02:29:31;11.00;;;6.00;;
70576;SDS011;58138;43.138;24.702;2023-09-19T02:31:59;12.05;;;5.80;;
70576;SDS011;58138;43.138;24.702;2023-09-19T02:34:24;7.97;;;5.47;;
70576;SDS011;58138;43.138;24.702;2023-09-19T02:36:50;9.52;;;6.43;;
70576;SDS011;58138;43.138;24.702;2023-09-19T02:39:17;7.75;;;6.95;;
70576;SDS011;58138;43.138;24.702;2023-09-19T02:41:43;11.77;;;7.45;;
70576;SDS011;58138;43.138;24.702;2023-09-19T02:44:08;7.28;;;6.40;;
70576;SDS011;58138;43.138;24.702;2023-09-19T02:46:34;10.48;;;6.30;;
70576;SDS011;58138;43.138;24.702;2023-09-19T02:49:01;10.30;;;6.75;;
70576;SDS011;58138;43.138;24.702;2023-09-19T02:51:30;12.45;;;6.03;;
70576;SDS011;58138;43.138;24.702;2023-09-19T02:53:56;10.75;;;6.90;;
70576;SDS011;58138;43.138;24.702;2023-09-19T02:56:21;11.15;;;6.25;;
70576;SDS011;58138;43.138;24.702;2023-09-19T02:58:47;12.15;;;7.10;;
70576;SDS011;58138;43.138;24.702;2023-09-19T03:01:13;11.00;;;6.85;;
70576;SDS011;58138;43.138;24.702;2023-09-19T03:03:41;7.45;;;6.28;;
70576;SDS011;58138;43.138;24.702;2023-09-19T03:06:07;7.97;;;6.47;;
70576;SDS011;58138;43.138;24.702;2023-09-19T03:08:34;11.93;;;6.95;;
70576;SDS011;58138;43.138;24.702;2023-09-19T03:11:03;9.90;;;7.25;;
70576;SDS011;58138;43.138;24.702;2023-09-19T03:13:28;10.00;;;6.47;;
70576;SDS011;58138;43.138;24.702;2023-09-19T03:15:56;11.43;;;6.22;;
70576;SDS011;58138;43.138;24.702;2023-09-19T03:18:23;7.93;;;6.93;;
70576;SDS011;58138;43.138;24.702;2023-09-19T03:20:55;10.85;;;7.82;;
70576;SDS011;58138;43.138;24.702;2023-09-19T03:23:21;10.70;;;6.70;;
70576;SDS011;58138;43.138;24.702;2023-09-19T03:25:47;9.10;;;6.88;;
70576;SDS011;58138;43.138;24.702;2023-09-19T03:28:13;13.30;;;7.15;;
70576;SDS011;58138;43.138;24.702;2023-09-19T03:30:39;10.43;;;8.15;;
70576;SDS011;58138;43.138;24.702;2023-09-19T03:33:05;11.15;;;6.82;;
70576;SDS011;58138;43.138;24.702;2023-09-19T03:35:31;10.90;;;7.55;;
70576;SDS011;58138;43.138;24.702;2023-09-19T03:37:56;14.98;;;7.10;;
70576;SDS011;58138;43.138;24.702;2023-09-19T03:40:22;12.52;;;6.72;;
70576;SDS011;58138;43.138;24.702;2023-09-19T03:42:48;11.15;;;7.40;;
70576;SDS011;58138;43.138;24.702;2023-09-19T03:45:14;10.80;;;7.28;;
70576;SDS011;58138;43.138;24.702;2023-09-19T03:47:41;11.50;;;7.25;;
70576;SDS011;58138;43.138;24.702;2023-09-19T03:50:07;10.85;;;7.85;;
70576;SDS011;58138;43.138;24.702;2023-09-19T03:52:43;8.98;;;6.72;;
70576;SDS011;58138;43.138;24.702;2023-09-19T03:55:09;8.02;;;7.20;;
70576;SDS011;58138;43.138;24.702;2023-09-19T03:57:37;8.95;;;7.28;;
70576;SDS011;58138;43.138;24.702;2023-09-19T04:00:03;13.88;;;7.85;;
70576;SDS011;58138;43.138;24.702;2023-09-19T04:02:39;14.55;;;8.23;;
70576;SDS011;58138;43.138;24.702;2023-09-19T04:05:06;11.40;;;8.57;;
70576;SDS011;58138;43.138;24.702;2023-09-19T04:07:32;14.70;;;8.45;;
70576;SDS011;58138;43.138;24.702;2023-09-19T04:09:57;12.85;;;8.50;;
70576;SDS011;58138;43.138;24.702;2023-09-19T04:12:23;12.48;;;10.00;;
70576;SDS011;58138;43.138;24.702;2023-09-19T04:14:48;12.07;;;8.35;;
70576;SDS011;58138;43.138;24.702;2023-09-19T04:17:15;11.05;;;8.00;;
70576;SDS011;58138;43.138;24.702;2023-09-19T04:19:40;18.50;;;11.93;;
70576;SDS011;58138;43.138;24.702;2023-09-19T04:22:06;17.50;;;11.73;;
70576;SDS011;58138;43.138;24.702;2023-09-19T04:24:32;13.15;;;9.52;;
70576;SDS011;58138;43.138;24.702;2023-09-19T04:26:57;12.73;;;9.13;;
70576;SDS011;58138;43.138;24.702;2023-09-19T04:29:24;11.27;;;8.05;;
70576;SDS011;58138;43.138;24.702;2023-09-19T04:31:51;16.90;;;9.10;;
70576;SDS011;58138;43.138;24.702;2023-09-19T04:34:17;21.38;;;14.48;;
70576;SDS011;58138;43.138;24.702;2023-09-19T04:36:43;20.90;;;11.55;;
70576;SDS011;58138;43.138;24.702;2023-09-19T04:39:08;15.75;;;9.07;;
70576;SDS011;58138;43.138;24.702;2023-09-19T04:41:36;14.20;;;10.38;;
70576;SDS011;58138;43.138;24.702;2023-09-19T04:44:04;20.23;;;11.75;;
70576;SDS011;58138;43.138;24.702;2023-09-19T04:46:30;13.82;;;8.45;;
70576;SDS011;58138;43.138;24.702;2023-09-19T04:48:55;20.88;;;8.27;;
70576;SDS011;58138;43.138;24.702;2023-09-19T04:51:21;14.48;;;8.40;;
70576;SDS011;58138;43.138;24.702;2023-09-19T04:53:47;11.85;;;7.68;;
70576;SDS011;58138;43.138;24.702;2023-09-19T04:56:13;13.50;;;8.45;;
70576;SDS011;58138;43.138;24.702;2023-09-19T04:58:38;20.27;;;8.02;;
70576;SDS011;58138;43.138;24.702;2023-09-19T05:01:04;17.52;;;8.23;;
70576;SDS011;58138;43.138;24.702;2023-09-19T05:03:30;15.82;;;7.63;;
70576;SDS011;58138;43.138;24.702;2023-09-19T05:05:55;12.52;;;7.15;;
70576;SDS011;58138;43.138;24.702;2023-09-19T05:08:21;14.55;;;7.35;;
70576;SDS011;58138;43.138;24.702;2023-09-19T05:10:47;17.95;;;8.07;;
70576;SDS011;58138;43.138;24.702;2023-09-19T05:13:14;12.65;;;7.03;;
70576;SDS011;58138;43.138;24.702;2023-09-19T05:15:39;13.98;;;7.45;;
70576;SDS011;58138;43.138;24.702;2023-09-19T05:18:05;15.80;;;8.27;;
70576;SDS011;58138;43.138;24.702;2023-09-19T05:20:31;13.82;;;9.60;;
70576;SDS011;58138;43.138;24.702;2023-09-19T05:23:03;15.85;;;9.43;;
70576;SDS011;58138;43.138;24.702;2023-09-19T05:25:33;13.90;;;7.93;;
70576;SDS011;58138;43.138;24.702;2023-09-19T05:28:03;13.55;;;8.15;;
70576;SDS011;58138;43.138;24.702;2023-09-19T05:30:30;13.95;;;7.13;;
70576;SDS011;58138;43.138;24.702;2023-09-19T05:32:56;18.58;;;7.78;;
70576;SDS011;58138;43.138;24.702;2023-09-19T05:35:22;13.48;;;6.75;;
70576;SDS011;58138;43.138;24.702;2023-09-19T05:37:50;15.60;;;8.30;;
70576;SDS011;58138;43.138;24.702;2023-09-19T05:40:19;12.13;;;7.15;;
70576;SDS011;58138;43.138;24.702;2023-09-19T05:42:45;12.75;;;6.53;;
70576;SDS011;58138;43.138;24.702;2023-09-19T05:45:11;12.27;;;6.60;;
70576;SDS011;58138;43.138;24.702;2023-09-19T05:47:37;8.68;;;6.32;;
70576;SDS011;58138;43.138;24.702;2023-09-19T05:50:05;10.25;;;6.40;;
70576;SDS011;58138;43.138;24.702;2023-09-19T05:52:32;9.05;;;5.95;;
70576;SDS011;58138;43.138;24.702;2023-09-19T05:54:58;9.93;;;5.50;;
70576;SDS011;58138;43.138;24.702;2023-09-19T05:57:24;6.50;;;5.20;;
70576;SDS011;58138;43.138;24.702;2023-09-19T05:59:49;10.95;;;7.97;;
70576;SDS011;58138;43.138;24.702;2023-09-19T06:02:15;8.60;;;6.03;;
70576;SDS011;58138;43.138;24.702;2023-09-19T06:04:41;10.05;;;5.15;;
70576;SDS011;58138;43.138;24.702;2023-09-19T06:07:06;7.75;;;5.22;;
70576;SDS011;58138;43.138;24.702;2023-09-19T06:09:32;8.43;;;5.13;;
70576;SDS011;58138;43.138;24.702;2023-09-19T06:11:58;8.93;;;5.22;;
70576;SDS011;58138;43.138;24.702;2023-09-19T06:14:28;7.10;;;5.03;;
70576;SDS011;58138;43.138;24.702;2023-09-19T06:16:53;8.55;;;5.53;;
70576;SDS011;58138;43.138;24.702;2023-09-19T06:19:19;12.63;;;9.13;;
70576;SDS011;58138;43.138;24.702;2023-09-19T06:21:47;12.70;;;6.20;;
70576;SDS011;58138;43.138;24.702;2023-09-19T06:24:13;8.38;;;4.95;;
70576;SDS011;58138;43.138;24.702;2023-09-19T06:26:38;5.70;;;4.20;;
70576;SDS011;58138;43.138;24.702;2023-09-19T06:29:04;7.90;;;4.78;;
70576;SDS011;58138;43.138;24.702;2023-09-19T06:31:32;7.43;;;5.00;;
70576;SDS011;58138;43.138;24.702;2023-09-19T06:33:58;8.48;;;4.70;;
70576;SDS011;58138;43.138;24.702;2023-09-19T06:36:24;8.80;;;5.72;;
70576;SDS011;58138;43.138;24.702;2023-09-19T06:38:50;9.60;;;5.70;;
70576;SDS011;58138;43.138;24.702;2023-09-19T06:41:18;8.30;;;4.90;;
70576;SDS011;58138;43.138;24.702;2023-09-19T06:43:44;8.23;;;4.63;;
70576;SDS011;58138;43.138;24.702;2023-09-19T06:46:10;9.15;;;4.65;;
70576;SDS011;58138;43.138;24.702;2023-09-19T06:48:36;6.68;;;4.70;;
70576;SDS011;58138;43.138;24.702;2023-09-19T06:51:02;9.77;;;5.28;;
70576;SDS011;58138;43.138;24.702;2023-09-19T06:53:30;8.80;;;4.90;;
70576;SDS011;58138;43.138;24.702;2023-09-19T06:56:00;7.32;;;4.53;;
70576;SDS011;58138;43.138;24.702;2023-09-19T06:58:26;7.72;;;4.50;;
70576;SDS011;58138;43.138;24.702;2023-09-19T07:00:51;5.78;;;4.07;;
70576;SDS011;58138;43.138;24.702;2023-09-19T07:03:17;6.25;;;4.03;;
70576;SDS011;58138;43.138;24.702;2023-09-19T07:05:43;7.43;;;4.05;;
70576;SDS011;58138;43.138;24.702;2023-09-19T07:08:09;10.75;;;4.50;;
70576;SDS011;58138;43.138;24.702;2023-09-19T07:10:39;10.48;;;4.20;;
70576;SDS011;58138;43.138;24.702;2023-09-19T07:13:06;7.15;;;3.90;;
70576;SDS011;58138;43.138;24.702;2023-09-19T07:15:35;13.02;;;4.53;;
70576;SDS011;58138;43.138;24.702;2023-09-19T07:18:04;10.23;;;4.50;;
70576;SDS011;58138;43.138;24.702;2023-09-19T07:20:31;8.00;;;4.35;;
70576;SDS011;58138;43.138;24.702;2023-09-19T07:22:57;10.15;;;4.00;;
70576;SDS011;58138;43.138;24.702;2023-09-19T07:25:26;14.68;;;4.18;;
70576;SDS011;58138;43.138;24.702;2023-09-19T07:27:52;10.95;;;3.92;;
70576;SDS011;58138;43.138;24.702;2023-09-19T07:30:20;8.50;;;3.80;;
70576;SDS011;58138;43.138;24.702;2023-09-19T07:32:45;7.15;;;3.22;;
70576;SDS011;58138;43.138;24.702;2023-09-19T07:35:11;7.68;;;3.40;;
70576;SDS011;58138;43.138;24.702;2023-09-19T07:37:37;9.68;;;3.67;;
70576;SDS011;58138;43.138;24.702;2023-09-19T07:40:03;5.78;;;3.70;;
70576;SDS011;58138;43.138;24.702;2023-09-19T07:42:35;7.68;;;3.20;;
70576;SDS011;58138;43.138;24.702;2023-09-19T07:45:02;6.30;;;3.38;;
70576;SDS011;58138;43.138;24.702;2023-09-19T07:47:28;4.57;;;3.17;;
70576;SDS011;58138;43.138;24.702;2023-09-19T07:49:55;9.30;;;3.50;;
70576;SDS011;58138;43.138;24.702;2023-09-19T07:52:20;6.07;;;3.38;;
70576;SDS011;58138;43.138;24.702;2023-09-19T07:54:48;9.15;;;3.78;;
70576;SDS011;58138;43.138;24.702;2023-09-19T07:57:14;7.03;;;3.63;;
70576;SDS011;58138;43.138;24.702;2023-09-19T07:59:40;8.20;;;3.72;;
70576;SDS011;58138;43.138;24.702;2023-09-19T08:02:07;6.07;;;3.80;;
70576;SDS011;58138;43.138;24.702;2023-09-19T08:04:34;6.72;;;3.65;;
70576;SDS011;58138;43.138;24.702;2023-09-19T08:07:00;15.57;;;3.97;;
70576;SDS011;58138;43.138;24.702;2023-09-19T08:09:28;12.93;;;4.43;;
70576;SDS011;58138;43.138;24.702;2023-09-19T08:11:58;8.57;;;4.00;;
70576;SDS011;58138;43.138;24.702;2023-09-19T08:14:23;10.95;;;4.15;;
70576;SDS011;58138;43.138;24.702;2023-09-19T08:16:50;9.50;;;4.25;;
70576;SDS011;58138;43.138;24.702;2023-09-19T08:19:16;19.67;;;4.30;;
70576;SDS011;58138;43.138;24.702;2023-09-19T08:21:41;9.50;;;4.05;;
70576;SDS011;58138;43.138;24.702;2023-09-19T08:24:11;9.85;;;3.28;;
70576;SDS011;58138;43.138;24.702;2023-09-19T08:26:37;10.43;;;3.75;;
70576;SDS011;58138;43.138;24.702;2023-09-19T08:29:03;7.03;;;3.53;;
70576;SDS011;58138;43.138;24.702;2023-09-19T08:31:30;7.25;;;3.33;;
70576;SDS011;58138;43.138;24.702;2023-09-19T08:33:55;9.07;;;3.55;;
70576;SDS011;58138;43.138;24.702;2023-09-19T08:36:21;8.35;;;3.50;;
70576;SDS011;58138;43.138;24.702;2023-09-19T08:38:47;9.85;;;3.40;;
70576;SDS011;58138;43.138;24.702;2023-09-19T08:41:14;7.85;;;3.53;;
70576;SDS011;58138;43.138;24.702;2023-09-19T08:43:42;6.97;;;3.40;;
70576;SDS011;58138;43.138;24.702;2023-09-19T08:46:11;9.77;;;3.70;;
70576;SDS011;58138;43.138;24.702;2023-09-19T08:48:39;8.23;;;3.22;;
70576;SDS011;58138;43.138;24.702;2023-09-19T08:51:33;7.85;;;2.97;;
70576;SDS011;58138;43.138;24.702;2023-09-19T08:56:32;9.15;;;3.10;;
70576;SDS011;58138;43.138;24.702;2023-09-19T08:59:04;3.67;;;2.90;;
70576;SDS011;58138;43.138;24.702;2023-09-19T09:01:32;10.40;;;7.28;;
70576;SDS011;58138;43.138;24.702;2023-09-19T09:03:58;4.20;;;2.88;;
70576;SDS011;58138;43.138;24.702;2023-09-19T09:06:24;4.55;;;3.45;;
70576;SDS011;58138;43.138;24.702;2023-09-19T09:08:51;3.40;;;2.72;;
70576;SDS011;58138;43.138;24.702;2023-09-19T09:11:17;5.03;;;3.20;;
70576;SDS011;58138;43.138;24.702;2023-09-19T09:13:43;3.58;;;3.05;;
70576;SDS011;58138;43.138;24.702;2023-09-19T09:16:10;6.63;;;3.60;;
70576;SDS011;58138;43.138;24.702;2023-09-19T09:18:36;6.10;;;3.45;;
70576;SDS011;58138;43.138;24.702;2023-09-19T09:21:01;3.70;;;3.30;;
70576;SDS011;58138;43.138;24.702;2023-09-19T09:23:29;6.60;;;3.47;;
70576;SDS011;58138;43.138;24.702;2023-09-19T09:25:56;5.78;;;3.45;;
70576;SDS011;58138;43.138;24.702;2023-09-19T09:28:24;4.28;;;3.42;;
70576;SDS011;58138;43.138;24.702;2023-09-19T09:30:52;6.75;;;3.58;;
70576;SDS011;58138;43.138;24.702;2023-09-19T09:33:17;5.28;;;3.67;;
70576;SDS011;58138;43.138;24.702;2023-09-19T09:35:47;6.38;;;3.90;;
70576;SDS011;58138;43.138;24.702;2023-09-19T09:38:22;3.88;;;3.20;;
70576;SDS011;58138;43.138;24.702;2023-09-19T09:40:56;4.53;;;3.08;;
70576;SDS011;58138;43.138;24.702;2023-09-19T09:43:41;6.60;;;3.70;;
70576;SDS011;58138;43.138;24.702;2023-09-19T09:46:12;6.28;;;3.30;;
70576;SDS011;58138;43.138;24.702;2023-09-19T09:48:48;4.93;;;3.42;;
70576;SDS011;58138;43.138;24.702;2023-09-19T09:54:29;11.32;;;3.53;;
70576;SDS011;58138;43.138;24.702;2023-09-19T10:02:41;5.28;;;3.15;;
70576;SDS011;58138;43.138;24.702;2023-09-19T10:05:11;5.70;;;3.22;;
70576;SDS011;58138;43.138;24.702;2023-09-19T10:07:48;9.85;;;5.45;;
70576;SDS011;58138;43.138;24.702;2023-09-19T10:13:17;11.18;;;4.03;;
70576;SDS011;58138;43.138;24.702;2023-09-19T10:15:50;7.43;;;3.38;;
70576;SDS011;58138;43.138;24.702;2023-09-19T10:18:20;7.13;;;3.50;;
70576;SDS011;58138;43.138;24.702;2023-09-19T10:20:47;5.85;;;3.40;;
70576;SDS011;58138;43.138;24.702;2023-09-19T10:23:14;5.63;;;3.10;;
70576;SDS011;58138;43.138;24.702;2023-09-19T10:25:47;4.43;;;3.33;;
70576;SDS011;58138;43.138;24.702;2023-09-19T10:28:14;3.72;;;3.30;;
70576;SDS011;58138;43.138;24.702;2023-09-19T10:30:41;8.48;;;3.30;;
70576;SDS011;58138;43.138;24.702;2023-09-19T10:35:39;5.55;;;3.60;;
70576;SDS011;58138;43.138;24.702;2023-09-19T10:38:12;4.93;;;3.55;;
70576;SDS011;58138;43.138;24.702;2023-09-19T10:40:39;6.07;;;3.15;;
70576;SDS011;58138;43.138;24.702;2023-09-19T10:43:15;4.72;;;2.88;;
70576;SDS011;58138;43.138;24.702;2023-09-19T10:45:45;7.80;;;3.70;;
70576;SDS011;58138;43.138;24.702;2023-09-19T10:48:14;7.70;;;3.95;;
70576;SDS011;58138;43.138;24.702;2023-09-19T10:53:10;5.47;;;3.15;;
70576;SDS011;58138;43.138;24.702;2023-09-19T10:55:37;7.13;;;3.08;;
70576;SDS011;58138;43.138;24.702;2023-09-19T10:58:03;5.90;;;2.53;;
70576;SDS011;58138;43.138;24.702;2023-09-19T11:00:58;9.77;;;3.03;;
70576;SDS011;58138;43.138;24.702;2023-09-19T11:03:43;9.02;;;3.13;;
70576;SDS011;58138;43.138;24.702;2023-09-19T11:06:09;8.18;;;2.85;;
70576;SDS011;58138;43.138;24.702;2023-09-19T11:11:51;6.88;;;2.97;;
70576;SDS011;58138;43.138;24.702;2023-09-19T11:30:49;4.35;;;2.75;;
70576;SDS011;58138;43.138;24.702;2023-09-19T11:33:27;7.00;;;3.00;;
70576;SDS011;58138;43.138;24.702;2023-09-19T11:46:12;3.85;;;2.70;;
70576;SDS011;58138;43.138;24.702;2023-09-19T11:48:41;11.68;;;3.05;;
70576;SDS011;58138;43.138;24.702;2023-09-19T11:51:16;7.82;;;3.00;;
70576;SDS011;58138;43.138;24.702;2023-09-19T11:53:55;5.88;;;2.72;;
70576;SDS011;58138;43.138;24.702;2023-09-19T11:56:23;4.75;;;2.88;;
70576;SDS011;58138;43.138;24.702;2023-09-19T11:58:53;4.75;;;2.72;;
70576;SDS011;58138;43.138;24.702;2023-09-19T12:01:24;6.93;;;3.00;;
70576;SDS011;58138;43.138;24.702;2023-09-19T12:03:58;5.18;;;2.65;;
70576;SDS011;58138;43.138;24.702;2023-09-19T12:06:24;4.63;;;2.80;;
70576;SDS011;58138;43.138;24.702;2023-09-19T12:08:51;5.03;;;2.92;;
70576;SDS011;58138;43.138;24.702;2023-09-19T12:11:19;5.20;;;2.45;;
70576;SDS011;58138;43.138;24.702;2023-09-19T12:13:47;4.63;;;3.00;;
70576;SDS011;58138;43.138;24.702;2023-09-19T12:16:20;3.05;;;2.50;;
70576;SDS011;58138;43.138;24.702;2023-09-19T12:18:49;3.45;;;2.63;;
70576;SDS011;58138;43.138;24.702;2023-09-19T12:21:22;4.45;;;2.80;;
70576;SDS011;58138;43.138;24.702;2023-09-19T12:23:59;4.20;;;2.58;;
70576;SDS011;58138;43.138;24.702;2023-09-19T12:26:45;5.63;;;3.00;;
70576;SDS011;58138;43.138;24.702;2023-09-19T12:29:18;5.45;;;3.10;;
70576;SDS011;58138;43.138;24.702;2023-09-19T12:31:55;5.93;;;2.78;;
70576;SDS011;58138;43.138;24.702;2023-09-19T12:34:32;5.75;;;3.42;;
70576;SDS011;58138;43.138;24.702;2023-09-19T12:37:14;6.40;;;3.45;;
70576;SDS011;58138;43.138;24.702;2023-09-19T12:40:02;6.22;;;3.33;;
70576;SDS011;58138;43.138;24.702;2023-09-19T12:42:46;5.10;;;3.25;;
70576;SDS011;58138;43.138;24.702;2023-09-19T12:45:12;6.60;;;2.95;;
70576;SDS011;58138;43.138;24.702;2023-09-19T12:47:40;5.38;;;3.35;;
70576;SDS011;58138;43.138;24.702;2023-09-19T12:50:12;3.63;;;2.85;;
70576;SDS011;58138;43.138;24.702;2023-09-19T12:52:44;6.80;;;3.30;;
70576;SDS011;58138;43.138;24.702;2023-09-19T12:55:46;4.18;;;3.40;;
70576;SDS011;58138;43.138;24.702;2023-09-19T12:58:08;8.52;;;3.70;;
70576;SDS011;58138;43.138;24.702;2023-09-19T13:00:40;6.88;;;4.00;;
70576;SDS011;58138;43.138;24.702;2023-09-19T13:06:00;6.43;;;3.60;;
70576;SDS011;58138;43.138;24.702;2023-09-19T13:08:30;9.07;;;3.90;;
70576;SDS011;58138;43.138;24.702;2023-09-19T13:13:38;5.28;;;3.33;;
70576;SDS011;58138;43.138;24.702;2023-09-19T13:16:04;3.60;;;3.30;;
70576;SDS011;58138;43.138;24.702;2023-09-19T13:18:50;3.42;;;3.08;;
70576;SDS011;58138;43.138;24.702;2023-09-19T13:21:26;5.43;;;4.10;;
70576;SDS011;58138;43.138;24.702;2023-09-19T13:23:53;6.68;;;3.25;;
70576;SDS011;58138;43.138;24.702;2023-09-19T13:26:24;6.03;;;3.13;;
70576;SDS011;58138;43.138;24.702;2023-09-19T13:28:51;7.68;;;3.20;;
70576;SDS011;58138;43.138;24.702;2023-09-19T13:31:16;5.80;;;4.05;;
70576;SDS011;58138;43.138;24.702;2023-09-19T13:33:44;6.78;;;4.20;;
70576;SDS011;58138;43.138;24.702;2023-09-19T13:36:11;5.18;;;3.83;;
70576;SDS011;58138;43.138;24.702;2023-09-19T13:38:38;4.80;;;3.90;;
70576;SDS011;58138;43.138;24.702;2023-09-19T13:41:05;8.13;;;4.60;;
70576;SDS011;58138;43.138;24.702;2023-09-19T13:43:31;9.63;;;7.55;;
70576;SDS011;58138;43.138;24.702;2023-09-19T13:45:56;9.68;;;8.68;;
70576;SDS011;58138;43.138;24.702;2023-09-19T13:48:23;11.93;;;9.20;;
70576;SDS011;58138;43.138;24.702;2023-09-19T13:50:49;13.73;;;9.15;;
70576;SDS011;58138;43.138;24.702;2023-09-19T13:53:15;10.10;;;8.55;;
70576;SDS011;58138;43.138;24.702;2023-09-19T13:55:42;12.65;;;10.13;;
70576;SDS011;58138;43.138;24.702;2023-09-19T13:58:07;19.60;;;13.93;;
70576;SDS011;58138;43.138;24.702;2023-09-19T14:00:35;19.25;;;13.25;;
70576;SDS011;58138;43.138;24.702;2023-09-19T14:03:01;15.77;;;13.20;;
70576;SDS011;58138;43.138;24.702;2023-09-19T14:05:27;15.02;;;12.93;;
70576;SDS011;58138;43.138;24.702;2023-09-19T14:07:53;17.42;;;12.40;;
70576;SDS011;58138;43.138;24.702;2023-09-19T14:10:21;17.60;;;12.93;;
70576;SDS011;58138;43.138;24.702;2023-09-19T14:12:46;16.50;;;12.98;;
70576;SDS011;58138;43.138;24.702;2023-09-19T14:15:12;16.38;;;13.18;;
70576;SDS011;58138;43.138;24.702;2023-09-19T14:17:39;17.88;;;13.35;;
70576;SDS011;58138;43.138;24.702;2023-09-19T14:20:07;16.15;;;10.65;;
70576;SDS011;58138;43.138;24.702;2023-09-19T14:22:35;15.02;;;10.40;;
70576;SDS011;58138;43.138;24.702;2023-09-19T14:25:01;15.15;;;9.80;;
70576;SDS011;58138;43.138;24.702;2023-09-19T14:27:28;20.45;;;9.23;;
70576;SDS011;58138;43.138;24.702;2023-09-19T14:29:53;12.30;;;9.38;;
70576;SDS011;58138;43.138;24.702;2023-09-19T14:32:19;11.88;;;9.20;;
70576;SDS011;58138;43.138;24.702;2023-09-19T14:34:44;11.00;;;7.90;;
70576;SDS011;58138;43.138;24.702;2023-09-19T14:37:10;11.90;;;7.32;;
70576;SDS011;58138;43.138;24.702;2023-09-19T14:39:36;12.18;;;7.75;;
70576;SDS011;58138;43.138;24.702;2023-09-19T14:42:04;9.80;;;7.20;;
70576;SDS011;58138;43.138;24.702;2023-09-19T14:44:29;8.80;;;6.13;;
70576;SDS011;58138;43.138;24.702;2023-09-19T14:46:55;8.25;;;6.72;;
70576;SDS011;58138;43.138;24.702;2023-09-19T14:49:20;10.30;;;5.90;;
70576;SDS011;58138;43.138;24.702;2023-09-19T14:51:46;11.48;;;5.60;;
70576;SDS011;58138;43.138;24.702;2023-09-19T14:54:13;11.40;;;5.53;;
70576;SDS011;58138;43.138;24.702;2023-09-19T14:56:42;7.60;;;5.38;;
70576;SDS011;58138;43.138;24.702;2023-09-19T14:59:07;12.52;;;4.80;;
70576;SDS011;58138;43.138;24.702;2023-09-19T15:01:35;10.48;;;5.25;;
70576;SDS011;58138;43.138;24.702;2023-09-19T15:04:01;11.38;;;4.78;;
70576;SDS011;58138;43.138;24.702;2023-09-19T15:06:26;10.60;;;4.95;;
70576;SDS011;58138;43.138;24.702;2023-09-19T15:08:52;12.18;;;5.30;;
70576;SDS011;58138;43.138;24.702;2023-09-19T15:11:18;10.57;;;5.20;;
70576;SDS011;58138;43.138;24.702;2023-09-19T15:13:44;10.05;;;4.20;;
70576;SDS011;58138;43.138;24.702;2023-09-19T15:16:10;5.95;;;4.40;;
70576;SDS011;58138;43.138;24.702;2023-09-19T15:18:37;10.70;;;4.53;;
70576;SDS011;58138;43.138;24.702;2023-09-19T15:21:07;8.75;;;4.53;;
70576;SDS011;58138;43.138;24.702;2023-09-19T15:23:35;10.00;;;4.20;;
70576;SDS011;58138;43.138;24.702;2023-09-19T15:26:05;12.45;;;4.35;;
70576;SDS011;58138;43.138;24.702;2023-09-19T15:28:32;8.93;;;4.78;;
70576;SDS011;58138;43.138;24.702;2023-09-19T15:31:02;7.70;;;4.20;;
70576;SDS011;58138;43.138;24.702;2023-09-19T15:33:31;8.13;;;4.13;;
70576;SDS011;58138;43.138;24.702;2023-09-19T15:36:07;8.07;;;3.85;;
70576;SDS011;58138;43.138;24.702;2023-09-19T15:41:37;13.70;;;7.70;;
70576;SDS011;58138;43.138;24.702;2023-09-19T15:44:04;10.18;;;5.25;;
70576;SDS011;58138;43.138;24.702;2023-09-19T15:46:35;15.48;;;5.75;;
70576;SDS011;58138;43.138;24.702;2023-09-19T15:49:01;9.80;;;4.82;;
70576;SDS011;58138;43.138;24.702;2023-09-19T15:51:28;17.65;;;4.78;;